Time;durP1;ratioP1;P1;durP2;ratioP2;P2;SDS_P1;SDS_P2;PMS_P1;PMS_P2;Temp;Humidity;BMP_temperature;BMP_pressure;BME280_temperature;BME280_humidity;BME280_pressure;Samples;Min_cycle;Max_cycle;Signal;HPM_P1;HPM_P2
2022/03/07 00:00:31;;;;;;;17.00;9.95;;;;;;;;;;5080878;28;20039;-73
2022/03/07 00:02:57;;;;;;;20.85;10.48;;;;;;;;;;5101334;28;20039;-72
2022/03/07 00:05:23;;;;;;;20.08;10.45;;;;;;;;;;5112332;28;20063;-73
2022/03/07 00:07:49;;;;;;;19.95;10.57;;;;;;;;;;5107401;28;20456;-73
2022/03/07 00:10:15;;;;;;;20.25;11.07;;;;;;;;;;5102665;28;20024;-72
2022/03/07 00:12:41;;;;;;;17.33;10.18;;;;;;;;;;5100494;28;20388;-73
2022/03/07 00:15:07;;;;;;;20.25;10.02;;;;;;;;;;5081845;28;20020;-72
2022/03/07 00:17:33;;;;;;;16.38;9.45;;;;;;;;;;5102173;28;20028;-72
2022/03/07 00:19:59;;;;;;;18.63;10.80;;;;;;;;;;5102957;28;20052;-72
2022/03/07 00:22:25;;;;;;;22.48;10.65;;;;;;;;;;5103488;28;20024;-72
2022/03/07 00:24:51;;;;;;;20.45;10.68;;;;;;;;;;5113081;28;20032;-72
2022/03/07 00:27:17;;;;;;;17.58;9.95;;;;;;;;;;5098592;28;20036;-72
2022/03/07 00:29:43;;;;;;;19.58;11.00;;;;;;;;;;5101871;28;20127;-72
2022/03/07 00:32:09;;;;;;;17.65;9.85;;;;;;;;;;5102715;28;20024;-72
2022/03/07 00:34:35;;;;;;;17.83;9.55;;;;;;;;;;5102527;28;20124;-72
2022/03/07 00:37:01;;;;;;;19.00;9.82;;;;;;;;;;5101990;28;20479;-72
2022/03/07 00:39:27;;;;;;;18.17;10.23;;;;;;;;;;5097988;28;20112;-72
2022/03/07 00:41:53;;;;;;;21.70;10.10;;;;;;;;;;5112942;28;20045;-73
2022/03/07 00:44:19;;;;;;;19.25;10.38;;;;;;;;;;5102830;28;20023;-72
2022/03/07 00:46:45;;;;;;;20.75;12.02;;;;;;;;;;5098413;28;20024;-73
2022/03/07 00:49:11;;;;;;;24.05;11.20;;;;;;;;;;5108575;28;20511;-72
2022/03/07 00:51:37;;;;;;;20.92;11.18;;;;;;;;;;5096255;28;20054;-72
2022/03/07 00:54:03;;;;;;;19.92;10.82;;;;;;;;;;5078408;28;20028;-72
2022/03/07 00:56:29;;;;;;;21.05;10.95;;;;;;;;;;5107995;28;20020;-72
2022/03/07 00:58:55;;;;;;;19.33;11.00;;;;;;;;;;5102776;28;20024;-72
2022/03/07 01:01:21;;;;;;;22.05;11.23;;;;;;;;;;5098973;28;20028;-72
2022/03/07 01:03:47;;;;;;;18.95;10.32;;;;;;;;;;5097057;28;20031;-72
2022/03/07 01:06:13;;;;;;;20.95;10.65;;;;;;;;;;5109506;28;20107;-72
2022/03/07 01:08:40;;;;;;;21.85;11.75;;;;;;;;;;5097281;28;20028;-72
2022/03/07 01:11:06;;;;;;;22.77;11.45;;;;;;;;;;5081160;28;20520;-72
2022/03/07 01:13:32;;;;;;;21.38;11.02;;;;;;;;;;5098359;28;20060;-72
2022/03/07 01:15:58;;;;;;;19.40;10.63;;;;;;;;;;5098908;28;20030;-72
2022/03/07 01:18:24;;;;;;;19.90;10.63;;;;;;;;;;5093612;28;20098;-71
2022/03/07 01:20:52;;;;;;;19.17;10.07;;;;;;;;;;5098405;28;20036;-72
2022/03/07 01:23:18;;;;;;;19.98;10.15;;;;;;;;;;5080791;28;20465;-72
2022/03/07 01:25:44;;;;;;;20.30;10.52;;;;;;;;;;5098575;28;20457;-72
2022/03/07 01:28:10;;;;;;;19.73;10.45;;;;;;;;;;5097142;28;20123;-71
2022/03/07 01:30:36;;;;;;;16.85;10.30;;;;;;;;;;5077036;28;20036;-72
2022/03/07 01:33:02;;;;;;;19.45;10.38;;;;;;;;;;5096404;28;20030;-71
2022/03/07 01:35:29;;;;;;;19.65;10.98;;;;;;;;;;5098897;28;20036;-71
2022/03/07 01:37:55;;;;;;;19.60;9.75;;;;;;;;;;5098169;28;20442;-71
2022/03/07 01:40:21;;;;;;;20.60;10.73;;;;;;;;;;5097466;28;20040;-72
2022/03/07 01:42:47;;;;;;;21.42;10.65;;;;;;;;;;5098671;28;20027;-72
2022/03/07 01:45:15;;;;;;;23.25;11.25;;;;;;;;;;5092868;28;20024;-70
2022/03/07 01:47:41;;;;;;;21.35;10.82;;;;;;;;;;5097743;28;20027;-70
2022/03/07 01:50:08;;;;;;;22.13;11.05;;;;;;;;;;5079729;28;20476;-70
2022/03/07 01:52:37;;;;;;;19.95;11.07;;;;;;;;;;5098207;28;20491;-70
2022/03/07 01:55:04;;;;;;;21.38;10.15;;;;;;;;;;5080094;28;20391;-70
2022/03/07 01:57:30;;;;;;;19.38;10.82;;;;;;;;;;5093184;28;20035;-70
2022/03/07 01:59:56;;;;;;;19.58;10.63;;;;;;;;;;5096798;28;20046;-71
2022/03/07 02:02:24;;;;;;;21.00;11.00;;;;;;;;;;5097440;28;20078;-71
2022/03/07 02:04:50;;;;;;;22.48;11.45;;;;;;;;;;5097534;28;20042;-72
2022/03/07 02:07:16;;;;;;;20.00;10.20;;;;;;;;;;5097289;28;20073;-70
2022/03/07 02:09:43;;;;;;;20.15;10.48;;;;;;;;;;5077753;28;20036;-71
2022/03/07 02:12:09;;;;;;;15.80;10.30;;;;;;;;;;5094215;28;20434;-71
2022/03/07 02:14:35;;;;;;;16.95;9.50;;;;;;;;;;5088140;28;20135;-71
2022/03/07 02:17:01;;;;;;;16.77;9.80;;;;;;;;;;5100160;28;20508;-70
2022/03/07 02:19:27;;;;;;;20.10;10.75;;;;;;;;;;5097341;28;20028;-72
2022/03/07 02:22:06;;;;;;;19.55;10.88;;;;;;;;;;5079091;28;20112;-72
2022/03/07 02:24:32;;;;;;;23.00;10.13;;;;;;;;;;5094181;28;20392;-70
2022/03/07 02:27:00;;;;;;;17.20;10.10;;;;;;;;;;5095020;28;20032;-70
2022/03/07 02:29:26;;;;;;;17.67;9.95;;;;;;;;;;5097579;28;20052;-70
2022/03/07 02:31:52;;;;;;;18.48;10.60;;;;;;;;;;5097551;28;20032;-70
2022/03/07 02:34:18;;;;;;;16.13;10.10;;;;;;;;;;5097424;28;20065;-71
2022/03/07 02:36:44;;;;;;;17.88;10.35;;;;;;;;;;5077324;28;20485;-70
2022/03/07 02:39:10;;;;;;;20.83;10.75;;;;;;;;;;5094831;28;20020;-71
2022/03/07 02:41:37;;;;;;;20.20;10.32;;;;;;;;;;5096116;28;20036;-70
2022/03/07 02:44:03;;;;;;;21.20;12.30;;;;;;;;;;5097040;28;20024;-71
2022/03/07 02:46:29;;;;;;;22.95;11.60;;;;;;;;;;5079356;28;20020;-70
2022/03/07 02:48:55;;;;;;;19.50;11.93;;;;;;;;;;5096331;28;20026;-70
2022/03/07 02:51:21;;;;;;;18.42;11.18;;;;;;;;;;5074958;28;20028;-71
2022/03/07 02:53:49;;;;;;;20.40;10.43;;;;;;;;;;5096700;28;20447;-70
2022/03/07 02:56:15;;;;;;;20.25;10.82;;;;;;;;;;5096409;28;20424;-71
2022/03/07 02:58:41;;;;;;;18.70;10.60;;;;;;;;;;5099700;28;20065;-70
2022/03/07 03:01:07;;;;;;;22.85;11.05;;;;;;;;;;5107484;28;20035;-70
2022/03/07 03:03:33;;;;;;;19.02;11.57;;;;;;;;;;5092953;28;20096;-70
2022/03/07 03:05:59;;;;;;;20.20;10.15;;;;;;;;;;5076816;28;20024;-70
2022/03/07 03:08:25;;;;;;;20.35;10.75;;;;;;;;;;5096594;28;20020;-70
2022/03/07 03:10:51;;;;;;;16.88;9.15;;;;;;;;;;5096510;28;20484;-70
2022/03/07 03:13:19;;;;;;;18.55;10.25;;;;;;;;;;5096770;28;20107;-70
2022/03/07 03:15:45;;;;;;;19.67;10.30;;;;;;;;;;5094574;28;20032;-70
2022/03/07 03:18:11;;;;;;;17.58;10.23;;;;;;;;;;5093960;28;20097;-70
2022/03/07 03:20:37;;;;;;;16.95;10.40;;;;;;;;;;5096060;28;20111;-70
2022/03/07 03:23:03;;;;;;;20.38;11.50;;;;;;;;;;5096777;28;20024;-70
2022/03/07 03:25:29;;;;;;;19.27;10.40;;;;;;;;;;5078460;28;20476;-70
2022/03/07 03:27:55;;;;;;;21.08;10.40;;;;;;;;;;5078527;28;20016;-70
2022/03/07 03:30:21;;;;;;;20.33;11.13;;;;;;;;;;5092415;28;20039;-70
2022/03/07 03:32:48;;;;;;;18.65;10.40;;;;;;;;;;5095652;28;20427;-70
2022/03/07 03:35:14;;;;;;;18.75;10.45;;;;;;;;;;5096266;28;20028;-70
2022/03/07 03:37:40;;;;;;;18.13;10.38;;;;;;;;;;5075716;28;20506;-70
2022/03/07 03:40:07;;;;;;;18.52;10.00;;;;;;;;;;5095846;28;20023;-70
2022/03/07 03:42:33;;;;;;;17.80;10.27;;;;;;;;;;5092744;28;20376;-70
2022/03/07 03:44:59;;;;;;;17.95;9.95;;;;;;;;;;5094416;28;20024;-70
2022/03/07 03:47:25;;;;;;;19.67;10.05;;;;;;;;;;5096892;28;20030;-70
2022/03/07 03:49:51;;;;;;;18.50;10.73;;;;;;;;;;5096299;28;20407;-71
2022/03/07 03:52:17;;;;;;;21.58;10.77;;;;;;;;;;5078612;28;20387;-71
2022/03/07 03:54:43;;;;;;;19.85;10.85;;;;;;;;;;5093212;28;20032;-70
2022/03/07 03:57:09;;;;;;;19.80;10.23;;;;;;;;;;5093926;28;20028;-70
2022/03/07 03:59:35;;;;;;;18.80;10.93;;;;;;;;;;5095801;28;20128;-71
2022/03/07 04:02:01;;;;;;;16.95;9.40;;;;;;;;;;5078877;28;20465;-70
2022/03/07 04:04:27;;;;;;;19.30;10.07;;;;;;;;;;5096156;28;20073;-70
2022/03/07 04:06:53;;;;;;;17.50;9.00;;;;;;;;;;5095138;28;20396;-70
2022/03/07 04:09:20;;;;;;;16.30;9.27;;;;;;;;;;5092097;28;20483;-70
2022/03/07 04:11:46;;;;;;;17.23;9.98;;;;;;;;;;5095722;28;20020;-70
2022/03/07 04:14:12;;;;;;;18.15;9.43;;;;;;;;;;5096120;28;20099;-70
2022/03/07 04:16:39;;;;;;;19.83;9.70;;;;;;;;;;5097986;28;20093;-70
2022/03/07 04:19:06;;;;;;;19.45;10.73;;;;;;;;;;5088944;28;20027;-70
2022/03/07 04:21:32;;;;;;;19.38;11.20;;;;;;;;;;5094448;28;20097;-70
2022/03/07 04:23:59;;;;;;;19.58;11.25;;;;;;;;;;5080137;28;20030;-67
2022/03/07 04:26:25;;;;;;;20.02;10.57;;;;;;;;;;5099817;28;20028;-68
2022/03/07 04:28:51;;;;;;;21.30;11.40;;;;;;;;;;5099285;28;20109;-66
2022/03/07 04:31:17;;;;;;;19.33;10.68;;;;;;;;;;5099921;28;20027;-66
2022/03/07 04:33:43;;;;;;;19.65;10.77;;;;;;;;;;5097652;28;20028;-66
2022/03/07 04:36:10;;;;;;;22.00;11.88;;;;;;;;;;5097161;28;20027;-66
2022/03/07 04:38:36;;;;;;;19.95;10.98;;;;;;;;;;5099086;28;20028;-66
2022/03/07 04:41:02;;;;;;;20.05;10.48;;;;;;;;;;5099187;28;20439;-66
2022/03/07 04:43:28;;;;;;;20.08;10.75;;;;;;;;;;5081321;28;20028;-66
2022/03/07 04:45:54;;;;;;;20.85;10.20;;;;;;;;;;5081099;28;20072;-66
2022/03/07 04:48:21;;;;;;;19.38;11.20;;;;;;;;;;5077610;28;20389;-66
2022/03/07 04:50:47;;;;;;;18.77;10.20;;;;;;;;;;5080138;28;20036;-67
2022/03/07 04:53:13;;;;;;;20.15;10.88;;;;;;;;;;5099610;28;20467;-67
2022/03/07 04:55:39;;;;;;;18.90;10.52;;;;;;;;;;5081619;28;20106;-67
2022/03/07 04:58:05;;;;;;;18.98;10.88;;;;;;;;;;5098852;28;20157;-68
2022/03/07 05:00:32;;;;;;;18.65;10.27;;;;;;;;;;5091001;28;20035;-66
2022/03/07 05:02:58;;;;;;;17.83;10.43;;;;;;;;;;5097577;28;20020;-66
2022/03/07 05:05:24;;;;;;;19.50;10.68;;;;;;;;;;5098808;28;20361;-66
2022/03/07 05:07:50;;;;;;;18.00;9.73;;;;;;;;;;5081533;28;20020;-66
2022/03/07 05:10:17;;;;;;;20.58;10.88;;;;;;;;;;5098641;28;20019;-67
2022/03/07 05:12:43;;;;;;;19.88;10.40;;;;;;;;;;5097227;28;20031;-66
2022/03/07 05:15:10;;;;;;;18.83;9.40;;;;;;;;;;5111261;28;20027;-66
2022/03/07 05:17:48;;;;;;;19.83;10.60;;;;;;;;;;5092411;28;20035;-66
2022/03/07 05:20:15;;;;;;;23.73;10.57;;;;;;;;;;5110186;28;20039;-66
2022/03/07 05:22:41;;;;;;;22.63;10.63;;;;;;;;;;5108983;28;20028;-67
2022/03/07 05:25:08;;;;;;;19.55;10.68;;;;;;;;;;5109721;28;20093;-66
2022/03/07 05:27:34;;;;;;;18.60;10.27;;;;;;;;;;5110148;28;20484;-66
2022/03/07 05:30:00;;;;;;;19.08;10.15;;;;;;;;;;5093794;28;20468;-66
2022/03/07 05:32:27;;;;;;;17.83;10.88;;;;;;;;;;5092521;28;20101;-67
2022/03/07 05:34:53;;;;;;;20.65;10.77;;;;;;;;;;5110949;28;20024;-66
2022/03/07 05:37:19;;;;;;;25.45;11.45;;;;;;;;;;5112049;28;20027;-66
2022/03/07 05:39:45;;;;;;;21.48;11.20;;;;;;;;;;5111733;28;20066;-66
2022/03/07 05:42:11;;;;;;;16.83;9.90;;;;;;;;;;5112045;28;20053;-66
2022/03/07 05:44:37;;;;;;;19.30;10.18;;;;;;;;;;5111271;28;20027;-66
2022/03/07 05:47:03;;;;;;;16.65;10.20;;;;;;;;;;5108407;28;20084;-65
2022/03/07 05:49:29;;;;;;;18.25;10.18;;;;;;;;;;5109159;28;20472;-65
2022/03/07 05:51:55;;;;;;;19.33;10.05;;;;;;;;;;5109651;28;20035;-65
2022/03/07 05:54:21;;;;;;;23.00;11.57;;;;;;;;;;5111695;28;20183;-66
2022/03/07 05:56:47;;;;;;;22.70;12.13;;;;;;;;;;5112863;28;20031;-70
2022/03/07 05:59:13;;;;;;;18.85;10.73;;;;;;;;;;5109630;28;20059;-70
2022/03/07 06:01:40;;;;;;;21.52;10.45;;;;;;;;;;5089434;28;20648;-72
2022/03/07 06:04:06;;;;;;;18.77;10.50;;;;;;;;;;5089157;28;20457;-66
2022/03/07 06:06:31;;;;;;;19.80;9.95;;;;;;;;;;5090387;28;20054;-66
2022/03/07 06:08:57;;;;;;;18.83;10.90;;;;;;;;;;5112745;28;20059;-66
2022/03/07 06:11:23;;;;;;;19.48;10.77;;;;;;;;;;5111002;28;20500;-66
2022/03/07 06:13:49;;;;;;;18.55;10.02;;;;;;;;;;5092127;28;20024;-65
2022/03/07 06:16:15;;;;;;;17.95;9.77;;;;;;;;;;5109061;28;20554;-64
2022/03/07 06:18:42;;;;;;;17.92;9.52;;;;;;;;;;5110589;28;20050;-65
2022/03/07 06:21:08;;;;;;;16.50;9.90;;;;;;;;;;5092484;28;20050;-65
2022/03/07 06:23:36;;;;;;;18.38;10.77;;;;;;;;;;5112543;28;20034;-66
2022/03/07 06:26:02;;;;;;;19.52;10.32;;;;;;;;;;5103126;28;20491;-66
2022/03/07 06:28:28;;;;;;;18.52;10.43;;;;;;;;;;5086612;28;20050;-66
2022/03/07 06:30:54;;;;;;;20.75;10.70;;;;;;;;;;5092906;28;20042;-66
2022/03/07 06:33:20;;;;;;;21.15;10.98;;;;;;;;;;5108824;28;20501;-67
2022/03/07 06:35:46;;;;;;;19.80;10.27;;;;;;;;;;5111417;28;20023;-66
2022/03/07 06:38:12;;;;;;;19.83;10.85;;;;;;;;;;5107168;28;20032;-66
2022/03/07 06:40:38;;;;;;;25.02;11.38;;;;;;;;;;5108969;28;20069;-66
2022/03/07 06:43:04;;;;;;;17.92;10.48;;;;;;;;;;5110188;28;20023;-66
2022/03/07 06:45:31;;;;;;;18.58;10.75;;;;;;;;;;5110074;28;20038;-66
2022/03/07 06:47:57;;;;;;;19.75;10.85;;;;;;;;;;5093088;28;20024;-66
2022/03/07 06:50:23;;;;;;;22.27;10.98;;;;;;;;;;5091387;28;20035;-66
2022/03/07 06:52:49;;;;;;;17.25;10.55;;;;;;;;;;5107080;28;20069;-66
2022/03/07 06:55:17;;;;;;;19.17;11.18;;;;;;;;;;5092378;28;20035;-67
2022/03/07 06:57:43;;;;;;;16.50;10.05;;;;;;;;;;5107776;28;20028;-66
2022/03/07 07:00:10;;;;;;;19.52;10.73;;;;;;;;;;5091923;28;20044;-66
2022/03/07 07:02:37;;;;;;;15.88;10.02;;;;;;;;;;5091502;28;20030;-66
2022/03/07 07:05:03;;;;;;;21.58;10.75;;;;;;;;;;5108699;28;20073;-66
2022/03/07 07:07:30;;;;;;;17.98;9.77;;;;;;;;;;5091628;28;20126;-67
2022/03/07 07:09:56;;;;;;;16.42;9.15;;;;;;;;;;5092406;28;20373;-64
2022/03/07 07:12:22;;;;;;;19.50;10.77;;;;;;;;;;5109449;28;20476;-67
2022/03/07 07:14:48;;;;;;;17.60;10.07;;;;;;;;;;5110430;28;20027;-67
2022/03/07 07:17:14;;;;;;;22.95;12.77;;;;;;;;;;5106676;28;20031;-68
2022/03/07 07:19:40;;;;;;;29.02;14.95;;;;;;;;;;5090436;28;20027;-68
2022/03/07 07:22:06;;;;;;;25.73;14.75;;;;;;;;;;5108706;28;20027;-68
2022/03/07 07:24:32;;;;;;;25.02;15.15;;;;;;;;;;5084555;28;20024;-68
2022/03/07 07:26:58;;;;;;;21.80;12.75;;;;;;;;;;5103675;28;20036;-68
2022/03/07 07:29:24;;;;;;;20.88;13.13;;;;;;;;;;5107102;28;20051;-68
2022/03/07 07:31:53;;;;;;;28.38;16.15;;;;;;;;;;5107772;28;20028;-68
2022/03/07 07:34:22;;;;;;;24.63;14.52;;;;;;;;;;5107646;28;20042;-68
2022/03/07 07:36:49;;;;;;;23.33;13.90;;;;;;;;;;5091640;28;20028;-68
2022/03/07 07:39:15;;;;;;;20.98;13.02;;;;;;;;;;5101462;28;20045;-68
2022/03/07 07:41:41;;;;;;;21.60;11.98;;;;;;;;;;5091192;28;20046;-69
2022/03/07 07:44:07;;;;;;;19.40;12.15;;;;;;;;;;5108039;28;20015;-69
2022/03/07 07:46:33;;;;;;;20.88;11.80;;;;;;;;;;5088776;28;20350;-68
2022/03/07 07:48:59;;;;;;;20.35;12.65;;;;;;;;;;5107789;28;20027;-68
2022/03/07 07:51:26;;;;;;;19.15;12.95;;;;;;;;;;5102838;28;20153;-68
2022/03/07 07:53:52;;;;;;;21.05;15.38;;;;;;;;;;5107830;28;20024;-68
2022/03/07 07:56:18;;;;;;;27.50;17.83;;;;;;;;;;5110301;28;20055;-67
2022/03/07 07:58:44;;;;;;;22.83;16.08;;;;;;;;;;5095500;28;20020;-68
2022/03/07 08:01:10;;;;;;;23.80;14.80;;;;;;;;;;5094811;28;20476;-68
2022/03/07 08:03:36;;;;;;;18.55;13.18;;;;;;;;;;5093332;28;20028;-68
2022/03/07 08:06:02;;;;;;;17.63;12.52;;;;;;;;;;5114224;28;20103;-68
2022/03/07 08:08:28;;;;;;;18.80;12.23;;;;;;;;;;5114284;28;20253;-68
2022/03/07 08:10:54;;;;;;;17.30;11.38;;;;;;;;;;5094956;28;20039;-68
2022/03/07 08:13:20;;;;;;;19.25;13.05;;;;;;;;;;5111506;28;20431;-68
2022/03/07 08:15:46;;;;;;;20.98;13.75;;;;;;;;;;5094779;28;20063;-67
2022/03/07 08:18:12;;;;;;;19.38;12.18;;;;;;;;;;5081303;28;20031;-68
2022/03/07 08:20:38;;;;;;;16.80;12.05;;;;;;;;;;5111686;28;20454;-68
2022/03/07 08:23:04;;;;;;;18.30;12.93;;;;;;;;;;5091808;28;20027;-68
2022/03/07 08:25:32;;;;;;;17.13;11.73;;;;;;;;;;5110133;28;20031;-68
2022/03/07 08:27:59;;;;;;;17.45;12.10;;;;;;;;;;5110128;28;20057;-68
2022/03/07 08:30:26;;;;;;;15.10;10.63;;;;;;;;;;5093072;28;20122;-68
2022/03/07 08:32:53;;;;;;;15.95;11.70;;;;;;;;;;5113894;28;20026;-68
2022/03/07 08:35:19;;;;;;;14.75;11.02;;;;;;;;;;5094762;28;20028;-68
2022/03/07 08:37:46;;;;;;;16.40;12.30;;;;;;;;;;5112341;28;20023;-68
2022/03/07 08:40:13;;;;;;;17.67;11.80;;;;;;;;;;5112628;28;20121;-68
2022/03/07 08:42:40;;;;;;;14.85;10.65;;;;;;;;;;5111552;28;20047;-68
2022/03/07 08:45:06;;;;;;;16.30;10.75;;;;;;;;;;5093586;28;20031;-68
2022/03/07 08:47:33;;;;;;;16.30;10.90;;;;;;;;;;5092070;28;20114;-68
2022/03/07 08:49:59;;;;;;;17.25;10.38;;;;;;;;;;5109371;28;20089;-68
2022/03/07 08:52:25;;;;;;;15.25;10.43;;;;;;;;;;5106743;28;20413;-68
2022/03/07 08:54:52;;;;;;;14.55;10.38;;;;;;;;;;5108920;28;20487;-68
2022/03/07 08:57:18;;;;;;;16.95;9.88;;;;;;;;;;5109755;28;20036;-68
2022/03/07 08:59:44;;;;;;;17.70;10.38;;;;;;;;;;5111020;28;20020;-68
2022/03/07 09:02:10;;;;;;;14.40;10.35;;;;;;;;;;5109850;28;20423;-68
2022/03/07 09:04:40;;;;;;;15.07;10.43;;;;;;;;;;5109718;28;20496;-68
2022/03/07 09:07:06;;;;;;;16.42;10.48;;;;;;;;;;5102074;28;20261;-68
2022/03/07 09:09:32;;;;;;;14.77;9.70;;;;;;;;;;5112559;28;20034;-67
2022/03/07 09:11:58;;;;;;;16.35;10.25;;;;;;;;;;5111261;28;20047;-67
2022/03/07 09:14:24;;;;;;;15.30;10.15;;;;;;;;;;5106099;28;20034;-67
2022/03/07 09:16:50;;;;;;;17.70;9.77;;;;;;;;;;5107380;28;20040;-67
2022/03/07 09:19:17;;;;;;;16.58;10.32;;;;;;;;;;5110730;28;20055;-67
2022/03/07 09:21:43;;;;;;;16.00;9.88;;;;;;;;;;5110374;28;20500;-67
2022/03/07 09:24:09;;;;;;;14.93;9.93;;;;;;;;;;5109421;28;20031;-68
2022/03/07 09:26:35;;;;;;;15.85;9.80;;;;;;;;;;5105414;28;20038;-67
2022/03/07 09:29:01;;;;;;;14.80;9.48;;;;;;;;;;5108992;28;20054;-67
2022/03/07 09:31:27;;;;;;;14.90;10.13;;;;;;;;;;5091919;28;20026;-67
2022/03/07 09:33:53;;;;;;;15.60;9.60;;;;;;;;;;5109946;28;20832;-67
2022/03/07 09:36:19;;;;;;;17.33;10.75;;;;;;;;;;5111259;28;20034;-67
2022/03/07 09:38:45;;;;;;;14.68;9.30;;;;;;;;;;5113288;28;20134;-67
2022/03/07 09:41:11;;;;;;;15.25;9.52;;;;;;;;;;5098890;28;20362;-67
2022/03/07 09:43:38;;;;;;;16.52;10.98;;;;;;;;;;5097921;28;20024;-67
2022/03/07 09:46:04;;;;;;;20.08;10.73;;;;;;;;;;5097869;28;20051;-67
2022/03/07 09:48:31;;;;;;;16.73;10.40;;;;;;;;;;5092477;28;20016;-67
2022/03/07 09:50:57;;;;;;;17.05;10.55;;;;;;;;;;5096757;28;20776;-67
2022/03/07 09:53:23;;;;;;;17.17;9.57;;;;;;;;;;5097876;28;20046;-67
2022/03/07 09:55:50;;;;;;;17.10;10.73;;;;;;;;;;5097249;28;20032;-68
2022/03/07 09:58:17;;;;;;;18.75;10.98;;;;;;;;;;5096938;28;20051;-67
2022/03/07 10:00:43;;;;;;;14.95;9.68;;;;;;;;;;5095102;28;20513;-67
2022/03/07 10:03:10;;;;;;;15.02;9.57;;;;;;;;;;5094742;28;20036;-67
2022/03/07 10:05:37;;;;;;;19.27;10.82;;;;;;;;;;5096657;28;20043;-67
2022/03/07 10:08:04;;;;;;;19.10;11.80;;;;;;;;;;5102598;28;20084;-67
2022/03/07 10:10:31;;;;;;;17.83;11.43;;;;;;;;;;5104362;28;20073;-68
2022/03/07 10:12:58;;;;;;;17.90;10.70;;;;;;;;;;5096560;28;20047;-67
2022/03/07 10:15:24;;;;;;;18.33;11.20;;;;;;;;;;5102855;28;20047;-65
2022/03/07 10:17:51;;;;;;;18.17;11.13;;;;;;;;;;5096389;28;20570;-65
2022/03/07 10:20:19;;;;;;;19.90;12.00;;;;;;;;;;5096722;28;20044;-65
2022/03/07 10:22:49;;;;;;;19.92;11.60;;;;;;;;;;5097127;28;20761;-65
2022/03/07 10:25:16;;;;;;;15.98;10.70;;;;;;;;;;5097063;28;20023;-65
2022/03/07 10:27:45;;;;;;;17.67;10.65;;;;;;;;;;5093897;28;20067;-64
2022/03/07 10:30:13;;;;;;;17.85;11.27;;;;;;;;;;5093965;28;20040;-65
2022/03/07 10:32:39;;;;;;;17.40;11.15;;;;;;;;;;5098171;28;20020;-65
2022/03/07 10:35:06;;;;;;;21.15;10.82;;;;;;;;;;5117110;27;20050;-65
2022/03/07 10:37:36;;;;;;;16.98;10.55;;;;;;;;;;5110762;27;20020;-67
2022/03/07 10:40:02;;;;;;;17.05;10.50;;;;;;;;;;5095962;28;20020;-67
2022/03/07 10:42:28;;;;;;;20.13;12.15;;;;;;;;;;5090797;28;20142;-68
2022/03/07 10:45:01;;;;;;;16.83;10.90;;;;;;;;;;5105758;28;20556;-67
2022/03/07 10:47:30;;;;;;;19.88;11.38;;;;;;;;;;5096817;28;20032;-67
2022/03/07 10:49:58;;;;;;;16.13;10.77;;;;;;;;;;5096641;28;20091;-67
2022/03/07 10:52:24;;;;;;;20.13;12.70;;;;;;;;;;5095964;28;20107;-66
2022/03/07 10:54:51;;;;;;;16.48;11.10;;;;;;;;;;5095148;28;20544;-67
2022/03/07 10:57:22;;;;;;;18.35;11.93;;;;;;;;;;5097434;27;20024;-67
2022/03/07 10:59:48;;;;;;;21.33;11.90;;;;;;;;;;5100191;28;20582;-67
2022/03/07 11:02:16;;;;;;;16.63;11.30;;;;;;;;;;5095221;28;20059;-66
2022/03/07 11:04:43;;;;;;;20.30;11.40;;;;;;;;;;5078014;28;20063;-66
2022/03/07 11:07:10;;;;;;;17.88;11.05;;;;;;;;;;5094588;28;20051;-66
2022/03/07 11:09:37;;;;;;;16.08;11.23;;;;;;;;;;5089014;28;20031;-67
2022/03/07 11:12:03;;;;;;;18.65;12.18;;;;;;;;;;5092310;28;20047;-66
2022/03/07 11:14:30;;;;;;;21.88;11.77;;;;;;;;;;5095780;28;20404;-67
2022/03/07 11:16:56;;;;;;;19.50;12.23;;;;;;;;;;5095690;28;20423;-67
2022/03/07 11:19:26;;;;;;;20.10;12.10;;;;;;;;;;5078569;28;20020;-67
2022/03/07 11:21:53;;;;;;;19.10;11.90;;;;;;;;;;5095355;28;20415;-67
2022/03/07 11:24:20;;;;;;;20.38;11.52;;;;;;;;;;5088231;28;20024;-67
2022/03/07 11:26:46;;;;;;;18.70;11.48;;;;;;;;;;5103938;28;20369;-66
2022/03/07 11:29:12;;;;;;;19.27;11.95;;;;;;;;;;5102479;28;20039;-68
2022/03/07 11:31:39;;;;;;;20.52;13.02;;;;;;;;;;5105776;28;20036;-68
2022/03/07 11:34:08;;;;;;;17.75;11.77;;;;;;;;;;5101629;28;20023;-67
2022/03/07 11:36:36;;;;;;;15.60;10.18;;;;;;;;;;5090738;28;20024;-67
2022/03/07 11:39:03;;;;;;;18.77;11.77;;;;;;;;;;5094100;28;20027;-68
2022/03/07 11:41:36;;;;;;;16.38;9.80;;;;;;;;;;5091307;28;20074;-66
2022/03/07 11:44:04;;;;;;;18.75;11.88;;;;;;;;;;5091355;28;20020;-64
2022/03/07 11:46:30;;;;;;;;;;;;;;;;;;5070314;28;20073;-65
2022/03/07 11:48:56;;;;;;;17.50;10.65;;;;;;;;;;5090590;28;20009;-70
2022/03/07 11:51:25;;;;;;;16.55;9.52;;;;;;;;;;5069059;28;20032;-72
2022/03/07 11:53:51;;;;;;;17.60;10.27;;;;;;;;;;5090848;28;20031;-70
2022/03/07 11:56:29;;;;;;;19.23;12.70;;;;;;;;;;5090139;28;20731;-65
2022/03/07 11:58:56;;;;;;;19.63;11.38;;;;;;;;;;5072779;28;20042;-67
2022/03/07 12:01:23;;;;;;;16.58;10.85;;;;;;;;;;5094286;28;20444;-68
2022/03/07 12:03:49;;;;;;;19.27;12.13;;;;;;;;;;5101528;28;20035;-69
2022/03/07 12:06:17;;;;;;;16.67;9.80;;;;;;;;;;5101169;28;20020;-65
2022/03/07 12:08:44;;;;;;;18.13;10.70;;;;;;;;;;5105418;28;20020;-65
2022/03/07 12:11:10;;;;;;;19.63;13.10;;;;;;;;;;5081374;28;20119;-64
2022/03/07 12:13:47;;;;;;;19.85;12.55;;;;;;;;;;5093604;28;20137;-64
2022/03/07 12:16:23;;;;;;;18.45;11.70;;;;;;;;;;5094965;28;20027;-63
2022/03/07 12:18:49;;;;;;;18.77;11.77;;;;;;;;;;5092646;28;20115;-65
2022/03/07 12:21:15;;;;;;;18.63;12.27;;;;;;;;;;5091758;28;20131;-67
2022/03/07 12:23:41;;;;;;;18.63;11.73;;;;;;;;;;5094000;28;20448;-67
2022/03/07 12:26:08;;;;;;;15.73;10.30;;;;;;;;;;5093889;28;20055;-67
2022/03/07 12:28:36;;;;;;;17.52;9.57;;;;;;;;;;5093708;28;20043;-67
2022/03/07 12:31:03;;;;;;;17.87;11.37;;;;;;;;;;5095310;28;20028;-68
2022/03/07 12:33:29;;;;;;;17.75;11.68;;;;;;;;;;5095497;28;20268;-68
2022/03/07 12:36:09;;;;;;;14.48;9.73;;;;;;;;;;5106311;28;20046;-69
2022/03/07 12:38:43;;;;;;;18.45;9.07;;;;;;;;;;5104469;28;20043;-68
2022/03/07 12:41:09;;;;;;;17.58;10.85;;;;;;;;;;5106082;28;20043;-68
2022/03/07 12:43:38;;;;;;;17.10;10.20;;;;;;;;;;5112029;28;20023;-68
2022/03/07 12:46:04;;;;;;;17.23;12.40;;;;;;;;;;5094607;28;20039;-68
2022/03/07 12:48:41;;;;;;;17.90;10.32;;;;;;;;;;5109718;28;20028;-69
2022/03/07 12:51:08;;;;;;;13.40;8.18;;;;;;;;;;5095356;28;20516;-68
2022/03/07 12:53:35;;;;;;;19.08;11.43;;;;;;;;;;5098719;28;20031;-68
2022/03/07 12:56:02;;;;;;;18.42;11.77;;;;;;;;;;5098676;28;20028;-68
2022/03/07 12:58:28;;;;;;;14.95;9.63;;;;;;;;;;5080910;28;20489;-69
2022/03/07 13:00:56;;;;;;;13.05;8.05;;;;;;;;;;5079005;28;20051;-68
2022/03/07 13:03:22;;;;;;;16.88;10.75;;;;;;;;;;5094631;28;20385;-68
2022/03/07 13:05:59;;;;;;;17.92;11.27;;;;;;;;;;5112562;28;20034;-68
2022/03/07 13:08:25;;;;;;;18.45;11.63;;;;;;;;;;5111434;28;20141;-68
2022/03/07 13:10:51;;;;;;;14.63;9.65;;;;;;;;;;5109974;28;20019;-68
2022/03/07 13:13:17;;;;;;;19.13;12.38;;;;;;;;;;5109056;28;20038;-68
2022/03/07 13:15:43;;;;;;;16.63;11.52;;;;;;;;;;5100106;28;20020;-68
2022/03/07 13:18:10;;;;;;;16.25;10.00;;;;;;;;;;5111564;28;20077;-69
2022/03/07 13:20:36;;;;;;;16.88;10.43;;;;;;;;;;5112199;28;20031;-69
2022/03/07 13:23:04;;;;;;;17.63;11.75;;;;;;;;;;5100062;28;20059;-68
2022/03/07 13:25:43;;;;;;;14.90;9.23;;;;;;;;;;5096011;28;20111;-68
2022/03/07 13:28:09;;;;;;;18.65;11.50;;;;;;;;;;5077820;28;20651;-68
2022/03/07 13:30:36;;;;;;;19.33;12.07;;;;;;;;;;5092706;28;20371;-68
2022/03/07 13:33:03;;;;;;;17.65;12.20;;;;;;;;;;5098668;28;20420;-68
2022/03/07 13:35:29;;;;;;;18.25;11.38;;;;;;;;;;5096345;28;20078;-68
2022/03/07 13:37:56;;;;;;;15.55;9.85;;;;;;;;;;5096200;28;20028;-69
2022/03/07 13:40:25;;;;;;;19.75;12.25;;;;;;;;;;5097212;28;20034;-68
2022/03/07 13:42:51;;;;;;;17.15;11.10;;;;;;;;;;5078817;28;20026;-69
2022/03/07 13:45:22;;;;;;;19.15;12.95;;;;;;;;;;5076312;28;20070;-69
2022/03/07 13:47:53;;;;;;;17.38;10.68;;;;;;;;;;5096811;28;20028;-68
2022/03/07 13:50:24;;;;;;;19.48;12.38;;;;;;;;;;5097262;28;20067;-69
2022/03/07 13:52:53;;;;;;;14.70;9.38;;;;;;;;;;5095949;28;20024;-68
2022/03/07 13:55:22;;;;;;;;;;;;;;;;;;5079869;28;20059;-69
2022/03/07 13:57:52;;;;;;;17.77;10.68;;;;;;;;;;5096616;28;19914;-69
2022/03/07 14:00:28;;;;;;;20.67;13.13;;;;;;;;;;5110888;28;20152;-69
2022/03/07 14:02:57;;;;;;;18.35;12.75;;;;;;;;;;5110242;28;20047;-68
2022/03/07 14:05:23;;;;;;;18.23;12.32;;;;;;;;;;5096014;28;20464;-67
2022/03/07 14:07:53;;;;;;;11.93;6.93;;;;;;;;;;5096672;28;20024;-68
2022/03/07 14:10:20;;;;;;;18.80;12.35;;;;;;;;;;5096806;28;20019;-67
2022/03/07 14:12:53;;;;;;;16.05;9.32;;;;;;;;;;5093250;28;20028;-67
2022/03/07 14:15:26;;;;;;;16.63;11.13;;;;;;;;;;5092063;28;20036;-68